Time;durP1;ratioP1;P1;durP2;ratioP2;P2;SDS_P1;SDS_P2;PMS_P1;PMS_P2;Temp;Humidity;BMP_temperature;BMP_pressure;BME280_temperature;BME280_humidity;BME280_pressure;Samples;Min_cycle;Max_cycle;Signal;HPM_P1;HPM_P2
2022/02/17 00:01:10;;;;;;;1.40;0.30;;;11.50;99.90;;;;;;6160140;23;20211;-84
2022/02/17 00:03:36;;;;;;;0.50;0.27;;;11.50;99.90;;;;;;6189524;23;20193;-84
2022/02/17 00:06:02;;;;;;;0.27;0.20;;;11.60;99.90;;;;;;6162746;23;20387;-83
2022/02/17 00:08:28;;;;;;;0.80;0.20;;;11.70;99.90;;;;;;6162289;23;20159;-85
2022/02/17 00:10:53;;;;;;;0.43;0.30;;;11.80;99.90;;;;;;6165159;23;20409;-85
2022/02/17 00:13:19;;;;;;;0.30;0.20;;;11.90;99.90;;;;;;6163533;23;20275;-85
2022/02/17 00:15:46;;;;;;;0.30;0.20;;;12.00;99.90;;;;;;6162859;23;20152;-85
2022/02/17 00:18:21;;;;;;;0.30;0.20;;;12.10;99.90;;;;;;6160380;23;20600;-85
2022/02/17 00:20:53;;;;;;;0.30;0.20;;;12.20;99.90;;;;;;6162575;23;20442;-85
2022/02/17 00:23:19;;;;;;;0.50;0.50;;;12.30;99.90;;;;;;6161601;23;20767;-85
2022/02/17 00:25:45;;;;;;;0.30;0.20;;;12.40;99.90;;;;;;6167342;23;20465;-85
2022/02/17 00:28:11;;;;;;;0.30;0.20;;;12.40;99.90;;;;;;6164627;23;20470;-85
2022/02/17 00:30:36;;;;;;;0.40;0.30;;;12.40;99.90;;;;;;6167803;23;20189;-85
2022/02/17 00:33:02;;;;;;;0.30;0.20;;;12.40;99.90;;;;;;6162561;23;20388;-86
2022/02/17 00:35:30;;;;;;;0.20;0.20;;;12.50;99.90;;;;;;6161674;23;20259;-85
2022/02/17 00:37:56;;;;;;;0.30;0.20;;;12.50;99.90;;;;;;6162192;23;20443;-85
2022/02/17 00:40:22;;;;;;;0.30;0.30;;;12.60;99.90;;;;;;6164193;23;20443;-85
2022/02/17 00:42:48;;;;;;;0.30;0.20;;;12.60;99.90;;;;;;6160750;23;20849;-85
2022/02/17 00:45:14;;;;;;;0.20;0.20;;;12.60;99.90;;;;;;6162612;23;20267;-84
2022/02/17 00:47:40;;;;;;;0.40;0.20;;;12.70;99.90;;;;;;6159834;23;20171;-85
2022/02/17 00:50:06;;;;;;;0.30;0.20;;;12.80;99.90;;;;;;6161655;23;20905;-84
2022/02/17 00:52:31;;;;;;;0.30;0.20;;;12.70;99.90;;;;;;6162702;23;20440;-84
2022/02/17 00:54:57;;;;;;;0.20;0.13;;;12.70;99.90;;;;;;6159899;23;20706;-85
2022/02/17 00:57:23;;;;;;;0.20;0.20;;;12.60;99.90;;;;;;6160997;23;20156;-84
2022/02/17 00:59:49;;;;;;;0.20;0.17;;;12.60;99.90;;;;;;6159076;23;20196;-85
2022/02/17 01:02:15;;;;;;;0.30;0.20;;;12.60;99.90;;;;;;6159097;23;20708;-84
2022/02/17 01:04:40;;;;;;;0.47;0.20;;;12.70;99.90;;;;;;6159547;23;20253;-84
2022/02/17 01:07:06;;;;;;;0.20;0.10;;;12.60;99.90;;;;;;6160304;23;20536;-84
2022/02/17 01:09:32;;;;;;;0.63;0.17;;;12.60;99.90;;;;;;6160066;23;20497;-84
2022/02/17 01:11:58;;;;;;;0.30;0.20;;;12.60;99.90;;;;;;6162624;23;20774;-84
2022/02/17 01:14:26;;;;;;;0.27;0.20;;;12.50;99.90;;;;;;6159208;23;20168;-84
2022/02/17 01:16:52;;;;;;;0.70;0.30;;;12.60;99.90;;;;;;6162232;23;20172;-85
2022/02/17 01:19:18;;;;;;;0.70;0.20;;;12.60;99.90;;;;;;6163756;23;20422;-85
2022/02/17 01:21:44;;;;;;;0.60;0.27;;;12.50;99.90;;;;;;6162642;23;20508;-84
2022/02/17 01:24:10;;;;;;;5.00;0.70;;;12.60;99.90;;;;;;6166246;23;20171;-85
2022/02/17 01:26:36;;;;;;;0.30;0.20;;;12.60;99.90;;;;;;6162826;23;20484;-85
2022/02/17 01:29:02;;;;;;;0.60;0.20;;;12.40;99.90;;;;;;6161169;23;20218;-85
2022/02/17 01:31:28;;;;;;;0.20;0.20;;;12.20;99.90;;;;;;6160313;23;20214;-85
2022/02/17 01:33:54;;;;;;;0.40;0.20;;;12.10;99.90;;;;;;6185989;23;20521;-85
2022/02/17 01:36:20;;;;;;;0.20;0.20;;;12.20;99.90;;;;;;6160112;23;20485;-85
2022/02/17 01:38:46;;;;;;;0.30;0.20;;;12.00;99.90;;;;;;6160415;23;20591;-85
2022/02/17 01:41:13;;;;;;;0.23;0.20;;;12.00;99.90;;;;;;6157244;23;20391;-85
2022/02/17 01:43:39;;;;;;;0.30;0.20;;;11.90;99.90;;;;;;6161871;23;20398;-84
2022/02/17 01:46:05;;;;;;;0.73;0.20;;;11.90;99.90;;;;;;6158231;23;20954;-84
2022/02/17 01:48:31;;;;;;;0.30;0.20;;;11.90;99.90;;;;;;6160101;23;20163;-84
2022/02/17 01:50:57;;;;;;;0.20;0.20;;;11.90;99.90;;;;;;6158609;23;20394;-84
2022/02/17 01:53:23;;;;;;;0.20;0.20;;;11.80;99.90;;;;;;6162384;23;20156;-84
2022/02/17 01:55:52;;;;;;;0.20;0.10;;;11.80;99.90;;;;;;6158636;23;20402;-84
2022/02/17 01:58:18;;;;;;;0.40;0.20;;;11.80;99.90;;;;;;6161687;23;20912;-84
2022/02/17 02:00:47;;;;;;;0.30;0.20;;;11.90;99.90;;;;;;6159361;23;20442;-84
2022/02/17 02:03:13;;;;;;;0.30;0.20;;;11.90;99.90;;;;;;6159598;23;20435;-84
2022/02/17 02:05:40;;;;;;;0.63;0.23;;;12.00;99.90;;;;;;6160670;23;20399;-84
2022/02/17 02:08:09;;;;;;;0.30;0.20;;;12.00;99.90;;;;;;6160324;23;20884;-84
2022/02/17 02:10:37;;;;;;;0.70;0.20;;;12.00;99.90;;;;;;6161559;23;21043;-84
2022/02/17 02:13:08;;;;;;;0.40;0.20;;;12.00;99.90;;;;;;6163398;23;20907;-84
2022/02/17 02:15:45;;;;;;;0.20;0.20;;;11.90;99.90;;;;;;6161254;23;21086;-84
2022/02/17 02:18:11;;;;;;;0.20;0.20;;;11.90;99.90;;;;;;6160026;23;20585;-84
2022/02/17 02:20:46;;;;;;;0.30;0.20;;;11.90;99.90;;;;;;6161416;23;20470;-84
2022/02/17 02:23:12;;;;;;;0.30;0.20;;;11.90;99.90;;;;;;6162857;23;20773;-84
2022/02/17 02:25:40;;;;;;;0.50;0.20;;;11.90;99.90;;;;;;6160195;23;20442;-84
2022/02/17 02:28:09;;;;;;;0.30;0.20;;;11.90;99.90;;;;;;6159951;23;20155;-84
2022/02/17 02:30:37;;;;;;;0.23;0.20;;;11.90;99.90;;;;;;6160899;23;20449;-83
2022/02/17 02:33:02;;;;;;;2.00;0.20;;;11.90;99.90;;;;;;6158564;23;20713;-83
2022/02/17 02:35:31;;;;;;;0.20;0.10;;;11.90;99.90;;;;;;6161024;23;20405;-84
2022/02/17 02:37:59;;;;;;;0.30;0.20;;;11.80;99.90;;;;;;6159583;23;20528;-84
2022/02/17 02:40:25;;;;;;;0.63;0.20;;;11.80;99.90;;;;;;6163231;23;20445;-84
2022/02/17 02:42:51;;;;;;;0.20;0.20;;;11.80;99.90;;;;;;6160066;23;21268;-84
2022/02/17 02:45:16;;;;;;;0.27;0.20;;;11.80;99.90;;;;;;6162803;23;20242;-84
2022/02/17 02:47:42;;;;;;;2.00;0.20;;;11.80;99.90;;;;;;6159546;23;20156;-84
2022/02/17 02:50:08;;;;;;;0.30;0.20;;;11.70;99.90;;;;;;6161267;23;20187;-84
2022/02/17 02:52:36;;;;;;;1.13;0.20;;;11.60;99.90;;;;;;6157117;23;20489;-84
2022/02/17 02:55:03;;;;;;;0.63;0.30;;;11.60;99.90;;;;;;6156736;23;20399;-84
2022/02/17 02:57:28;;;;;;;0.50;0.20;;;11.50;99.90;;;;;;6158190;23;20826;-85
2022/02/17 02:59:54;;;;;;;0.27;0.20;;;11.50;99.90;;;;;;6157347;23;20779;-84
2022/02/17 03:02:20;;;;;;;0.30;0.20;;;11.40;99.90;;;;;;6160916;23;20165;-85
2022/02/17 03:04:45;;;;;;;0.20;0.20;;;11.40;99.90;;;;;;6162226;23;20163;-85
2022/02/17 03:07:19;;;;;;;0.27;0.20;;;11.40;99.90;;;;;;6163364;23;20652;-85
2022/02/17 03:09:45;;;;;;;0.20;0.20;;;11.30;99.90;;;;;;6163299;23;20515;-84
2022/02/17 03:12:11;;;;;;;0.53;0.20;;;11.30;99.90;;;;;;6161122;23;20738;-85
2022/02/17 03:14:40;;;;;;;0.20;0.20;;;11.30;99.90;;;;;;6164833;23;20634;-85
2022/02/17 03:17:06;;;;;;;0.47;0.20;;;11.30;99.90;;;;;;6163450;23;20186;-85
2022/02/17 03:19:32;;;;;;;0.30;0.20;;;11.30;99.90;;;;;;6163344;23;20435;-84
2022/02/17 03:21:59;;;;;;;0.30;0.20;;;11.30;99.90;;;;;;6161147;23;20379;-84
2022/02/17 03:24:25;;;;;;;0.83;0.20;;;11.30;99.90;;;;;;6162938;23;20436;-84
2022/02/17 03:26:51;;;;;;;0.20;0.20;;;11.30;99.90;;;;;;6162513;23;20448;-84
2022/02/17 03:29:19;;;;;;;0.30;0.20;;;11.20;99.90;;;;;;6162632;23;20155;-84
2022/02/17 03:31:45;;;;;;;0.20;0.10;;;11.30;99.90;;;;;;6163662;23;20390;-85
2022/02/17 03:34:10;;;;;;;0.30;0.20;;;11.30;99.90;;;;;;6162687;23;20155;-86
2022/02/17 03:36:36;;;;;;;0.90;0.23;;;11.30;99.90;;;;;;6162845;23;20203;-85
2022/02/17 03:39:02;;;;;;;0.60;0.30;;;11.40;99.90;;;;;;6163305;23;20722;-85
2022/02/17 03:41:28;;;;;;;0.30;0.30;;;11.40;99.90;;;;;;6162916;23;20591;-86
2022/02/17 03:43:53;;;;;;;0.30;0.20;;;11.40;99.90;;;;;;6163080;23;20400;-86
2022/02/17 03:46:19;;;;;;;0.20;0.20;;;11.50;99.90;;;;;;6165100;23;20670;-86
2022/02/17 03:48:45;;;;;;;0.67;0.20;;;11.50;99.90;;;;;;6162881;23;20156;-86
2022/02/17 03:51:10;;;;;;;0.30;0.20;;;11.50;99.90;;;;;;6162122;23;20332;-86
2022/02/17 03:53:36;;;;;;;0.20;0.20;;;11.60;99.90;;;;;;6163730;23;20734;-86
2022/02/17 03:56:11;;;;;;;0.30;0.20;;;11.60;99.90;;;;;;6162819;23;20160;-86
2022/02/17 04:01:20;;;;;;;0.40;0.30;;;11.60;99.90;;;;;;6191238;23;20483;-86
2022/02/17 04:03:46;;;;;;;0.20;0.10;;;11.60;99.90;;;;;;6165994;23;20477;-85
2022/02/17 04:06:12;;;;;;;0.20;0.20;;;11.50;99.90;;;;;;6163753;23;20210;-85
2022/02/17 04:08:37;;;;;;;0.30;0.20;;;11.50;99.90;;;;;;6163021;23;20167;-85
2022/02/17 04:11:06;;;;;;;0.20;0.20;;;11.50;99.90;;;;;;6163244;23;20294;-86
2022/02/17 04:13:31;;;;;;;0.30;0.20;;;11.50;99.90;;;;;;6162759;23;20282;-85
2022/02/17 04:15:57;;;;;;;0.40;0.20;;;11.60;99.90;;;;;;6162695;23;21162;-85
2022/02/17 04:18:23;;;;;;;0.30;0.20;;;11.60;99.90;;;;;;6164049;23;20645;-84
2022/02/17 04:20:49;;;;;;;0.40;0.30;;;11.60;99.90;;;;;;6164101;23;20227;-86
2022/02/17 04:23:14;;;;;;;0.30;0.20;;;11.50;99.90;;;;;;6163285;23;20666;-85
2022/02/17 04:25:40;;;;;;;0.53;0.20;;;11.50;99.90;;;;;;6163563;23;20681;-85
2022/02/17 04:28:06;;;;;;;0.20;0.17;;;11.60;99.90;;;;;;6162857;23;20156;-85
2022/02/17 04:30:31;;;;;;;0.30;0.23;;;11.60;99.90;;;;;;6162264;23;20166;-85
2022/02/17 04:33:01;;;;;;;0.30;0.20;;;11.60;99.90;;;;;;6162606;23;20160;-86
2022/02/17 04:35:27;;;;;;;0.20;0.20;;;11.60;99.90;;;;;;6165363;23;20168;-86
2022/02/17 04:37:56;;;;;;;0.30;0.23;;;11.60;99.90;;;;;;6161704;23;20434;-86
2022/02/17 04:42:18;;;;;;;0.30;0.20;;;11.70;99.90;;;;;;6161685;23;20823;-86
2022/02/17 04:43:16;;;;;;;0.20;0.20;;;11.70;99.90;;;;;;6191872;23;20386;-86
2022/02/17 04:45:42;;;;;;;0.20;0.20;;;11.60;99.90;;;;;;6179467;23;20763;-85
2022/02/17 04:48:07;;;;;;;0.30;0.30;;;11.60;99.90;;;;;;6173435;23;20394;-85
2022/02/17 04:50:33;;;;;;;0.40;0.20;;;11.50;99.90;;;;;;6168092;23;20188;-85
2022/02/17 04:52:59;;;;;;;0.30;0.20;;;11.50;99.90;;;;;;6161921;23;20623;-86
2022/02/17 04:55:25;;;;;;;0.30;0.30;;;11.60;99.90;;;;;;6161048;23;21099;-85
2022/02/17 04:57:51;;;;;;;0.20;0.20;;;11.70;99.90;;;;;;6162775;23;20195;-85
2022/02/17 05:00:17;;;;;;;0.40;0.40;;;11.70;99.90;;;;;;6164474;23;20469;-85
2022/02/17 05:02:43;;;;;;;0.80;0.30;;;11.70;99.90;;;;;;6166819;23;20749;-86
2022/02/17 05:05:09;;;;;;;0.30;0.30;;;11.60;99.90;;;;;;6167425;23;20174;-86
2022/02/17 05:07:34;;;;;;;0.87;0.23;;;11.60;99.90;;;;;;6164049;23;20611;-85
2022/02/17 05:10:00;;;;;;;0.20;0.20;;;11.60;99.90;;;;;;6162090;23;20466;-86
2022/02/17 05:12:29;;;;;;;0.50;0.20;;;11.60;99.90;;;;;;6161784;23;20470;-86
2022/02/17 05:14:55;;;;;;;0.30;0.20;;;11.70;99.90;;;;;;6158103;23;20876;-86
2022/02/17 05:17:20;;;;;;;0.20;0.10;;;11.70;99.90;;;;;;6160036;23;20387;-86
2022/02/17 05:19:46;;;;;;;0.40;0.20;;;11.70;99.90;;;;;;6161231;23;20585;-86
2022/02/17 05:22:15;;;;;;;0.30;0.20;;;11.80;99.90;;;;;;6158139;23;20452;-86
2022/02/17 05:24:40;;;;;;;0.27;0.27;;;11.80;99.90;;;;;;6160756;23;20160;-85
2022/02/17 05:27:09;;;;;;;0.40;0.30;;;11.70;99.90;;;;;;6162075;23;20425;-86
2022/02/17 05:29:37;;;;;;;0.40;0.20;;;11.60;99.90;;;;;;6157376;23;20182;-86
2022/02/17 05:32:11;;;;;;;0.30;0.30;;;11.60;99.90;;;;;;6158682;23;20383;-86
2022/02/17 05:34:37;;;;;;;0.30;0.20;;;11.70;99.90;;;;;;6162934;23;20960;-86
2022/02/17 05:37:03;;;;;;;2.00;0.20;;;11.70;99.90;;;;;;6159319;23;20411;-86
2022/02/17 05:39:36;;;;;;;1.17;0.20;;;11.60;99.90;;;;;;6158597;23;20682;-86
2022/02/17 05:42:15;;;;;;;0.30;0.30;;;11.60;99.90;;;;;;6159351;23;20402;-86
2022/02/17 05:55:42;;;;;;;0.67;0.40;;;11.50;99.90;;;;;;6245147;21;1376755;-85
2022/02/17 05:58:11;;;;;;;0.43;0.30;;;11.00;99.90;;;;;;6296491;22;20161;-87
2022/02/17 06:00:40;;;;;;;0.30;0.30;;;10.90;99.90;;;;;;6295840;22;20391;-87
2022/02/17 06:03:08;;;;;;;0.33;0.30;;;10.90;99.90;;;;;;6295568;22;20966;-86
2022/02/17 06:05:36;;;;;;;0.40;0.40;;;10.90;99.90;;;;;;6297347;22;20403;-85
2022/02/17 06:08:02;;;;;;;0.30;0.30;;;10.90;99.90;;;;;;6288176;22;20387;-88
2022/02/17 06:10:36;;;;;;;0.20;0.20;;;11.00;99.90;;;;;;6281150;22;20509;-86
2022/02/17 06:13:20;;;;;;;0.60;0.30;;;11.10;99.90;;;;;;6284570;22;20398;-86
2022/02/17 06:15:45;;;;;;;0.30;0.20;;;11.20;99.90;;;;;;6287022;22;20156;-86
2022/02/17 06:18:11;;;;;;;0.30;0.27;;;11.20;99.90;;;;;;6284690;22;20387;-86
2022/02/17 06:20:37;;;;;;;2.93;0.50;;;11.20;99.90;;;;;;6286900;22;20544;-86
2022/02/17 06:23:03;;;;;;;0.30;0.30;;;11.20;99.90;;;;;;6287628;22;20505;-86
2022/02/17 06:25:29;;;;;;;0.50;0.40;;;11.20;99.90;;;;;;6286114;22;20200;-85
2022/02/17 06:27:54;;;;;;;0.40;0.40;;;11.20;99.90;;;;;;6284485;22;20520;-86
2022/02/17 06:30:22;;;;;;;0.40;0.30;;;11.30;99.90;;;;;;6286378;22;20410;-86
2022/02/17 06:32:48;;;;;;;0.30;0.23;;;11.20;99.90;;;;;;6286640;22;20497;-85
2022/02/17 06:35:19;;;;;;;0.30;0.20;;;11.20;99.90;;;;;;6285740;22;20379;-86
2022/02/17 06:37:46;;;;;;;0.30;0.20;;;11.20;99.90;;;;;;6289812;22;20387;-86
2022/02/17 06:40:12;;;;;;;0.60;0.30;;;11.10;99.90;;;;;;6289263;22;20400;-86
2022/02/17 06:42:38;;;;;;;0.93;0.50;;;11.10;99.90;;;;;;6289173;22;20413;-87
2022/02/17 06:45:04;;;;;;;1.33;0.40;;;11.00;99.90;;;;;;6292499;22;20464;-87
2022/02/17 06:47:30;;;;;;;2.17;0.50;;;11.00;99.90;;;;;;6301579;22;20645;-87
2022/02/17 06:49:56;;;;;;;4.30;0.70;;;11.00;99.90;;;;;;6297043;22;20391;-84
2022/02/17 06:52:22;;;;;;;1.47;0.60;;;11.00;99.90;;;;;;6294802;22;20164;-87
2022/02/17 06:54:59;;;;;;;3.80;1.13;;;10.90;99.90;;;;;;6282168;22;20192;-87
2022/02/17 06:57:30;;;;;;;1.13;0.70;;;10.90;99.90;;;;;;6278930;22;20398;-87
2022/02/17 06:59:59;;;;;;;1.37;0.50;;;10.80;99.90;;;;;;6273942;22;20428;-86
2022/02/17 07:02:31;;;;;;;3.30;0.97;;;10.80;99.90;;;;;;6276304;22;20400;-86
2022/02/17 07:04:57;;;;;;;1.80;0.50;;;10.80;99.90;;;;;;6273331;22;20432;-85
2022/02/17 07:07:23;;;;;;;1.97;0.77;;;10.70;99.90;;;;;;6274435;22;21001;-86
2022/02/17 07:09:48;;;;;;;5.90;0.90;;;10.70;99.90;;;;;;6275124;22;20453;-86
2022/02/17 07:12:29;;;;;;;2.50;0.60;;;10.70;99.90;;;;;;6276539;22;20158;-87
2022/02/17 07:14:57;;;;;;;2.33;1.77;;;10.70;99.90;;;;;;6261880;22;20586;-85
2022/02/17 07:17:24;;;;;;;3.13;0.87;;;10.60;99.90;;;;;;6284553;22;20388;-86
2022/02/17 07:19:50;;;;;;;4.17;0.80;;;10.50;99.90;;;;;;6285965;22;20696;-86
2022/02/17 07:22:19;;;;;;;2.17;0.80;;;10.60;99.90;;;;;;6295517;22;20551;-87
2022/02/17 07:24:48;;;;;;;2.13;0.87;;;10.60;99.90;;;;;;6296463;22;20485;-86
2022/02/17 07:27:14;;;;;;;2.67;0.63;;;10.60;99.90;;;;;;6291085;22;20710;-85
2022/02/17 07:29:40;;;;;;;2.47;0.90;;;10.50;99.90;;;;;;6287631;22;20391;-86
2022/02/17 07:32:07;;;;;;;1.50;0.70;;;10.60;99.90;;;;;;6286288;22;20550;-86
2022/02/17 07:34:33;;;;;;;2.40;0.97;;;10.60;99.90;;;;;;6285754;22;20354;-86
2022/02/17 07:36:58;;;;;;;1.80;0.80;;;10.60;99.90;;;;;;6285767;22;20388;-86
2022/02/17 07:39:33;;;;;;;1.50;0.50;;;10.70;99.90;;;;;;6286728;22;20384;-86
2022/02/17 07:41:59;;;;;;;3.07;0.70;;;10.70;99.90;;;;;;6289135;22;20155;-89
2022/02/17 07:44:28;;;;;;;1.13;0.60;;;10.80;99.90;;;;;;6285978;22;20435;-87
2022/02/17 07:47:02;;;;;;;1.80;0.77;;;10.90;99.90;;;;;;6287631;22;20391;-88
2022/02/17 07:49:28;;;;;;;3.03;0.57;;;10.90;99.90;;;;;;6297255;22;20415;-87
2022/02/17 07:51:53;;;;;;;2.93;0.70;;;11.00;99.90;;;;;;6292930;22;20795;-87
2022/02/17 07:54:34;;;;;;;2.00;0.83;;;11.00;99.90;;;;;;6285921;22;20177;-87
2022/02/17 07:57:11;;;;;;;2.00;0.97;;;11.00;99.90;;;;;;6287160;22;20153;-86
2022/02/17 07:59:38;;;;;;;0.70;0.50;;;11.10;99.90;;;;;;6287006;22;20392;-85
2022/02/17 08:02:04;;;;;;;2.77;0.80;;;11.10;99.90;;;;;;6287479;22;20856;-85
2022/02/17 08:04:30;;;;;;;1.40;0.80;;;11.20;99.90;;;;;;6288828;22;20846;-86
2022/02/17 08:06:56;;;;;;;1.87;0.90;;;11.20;99.90;;;;;;6288026;22;21276;-86
2022/02/17 08:09:22;;;;;;;3.83;1.00;;;11.10;99.90;;;;;;6287999;22;20392;-86
2022/02/17 08:11:48;;;;;;;5.40;2.00;;;11.20;99.90;;;;;;6289898;22;20403;-86
2022/02/17 08:14:14;;;;;;;4.53;1.20;;;11.20;99.90;;;;;;6281803;22;20657;-86
2022/02/17 08:16:40;;;;;;;3.60;1.40;;;11.30;99.90;;;;;;6281079;22;20380;-86
2022/02/17 08:19:09;;;;;;;3.20;1.10;;;11.40;99.90;;;;;;6278629;22;20893;-87
2022/02/17 08:22:05;;;;;;;2.63;1.23;;;11.40;99.90;;;;;;6277159;22;20181;-87
2022/02/17 08:24:31;;;;;;;6.90;1.40;;;11.30;99.90;;;;;;6278916;22;20467;-89
2022/02/17 08:26:59;;;;;;;3.47;1.33;;;11.30;99.90;;;;;;6286485;22;20439;-85
2022/02/17 08:29:26;;;;;;;1.80;1.20;;;11.50;99.90;;;;;;6282282;22;20189;-87
2022/02/17 08:31:52;;;;;;;3.67;1.17;;;11.50;99.90;;;;;;6280386;22;20380;-86
2022/02/17 08:34:18;;;;;;;1.90;1.30;;;11.50;99.90;;;;;;6278434;22;20423;-86
2022/02/17 08:36:45;;;;;;;3.53;1.17;;;11.50;99.90;;;;;;6280542;22;20161;-86
2022/02/17 08:39:18;;;;;;;5.53;1.17;;;11.60;99.90;;;;;;6280255;22;20502;-85
2022/02/17 08:41:44;;;;;;;3.50;1.40;;;11.60;99.90;;;;;;6282555;22;20832;-86
2022/02/17 08:44:10;;;;;;;4.77;1.53;;;11.70;99.90;;;;;;6281507;22;20428;-86
2022/02/17 08:46:38;;;;;;;4.83;1.50;;;11.70;99.90;;;;;;6284336;22;20389;-86
2022/02/17 08:49:05;;;;;;;4.57;1.37;;;11.70;99.90;;;;;;6281815;22;20392;-85
2022/02/17 08:51:31;;;;;;;7.43;2.10;;;11.70;99.90;;;;;;6283928;22;20427;-85
2022/02/17 08:53:57;;;;;;;4.30;1.03;;;11.80;99.90;;;;;;6280164;22;20404;-86
2022/02/17 08:56:24;;;;;;;1.50;0.87;;;11.80;99.90;;;;;;6286136;22;20149;-86
2022/02/17 08:58:52;;;;;;;2.67;1.60;;;11.80;99.90;;;;;;6281325;22;20380;-86
2022/02/17 09:01:18;;;;;;;6.13;2.07;;;11.60;99.90;;;;;;6282195;22;20384;-86
2022/02/17 09:03:44;;;;;;;3.70;1.60;;;11.60;99.90;;;;;;6280986;22;20423;-86
2022/02/17 09:06:10;;;;;;;3.70;1.70;;;11.70;99.90;;;;;;6281257;22;20482;-86
2022/02/17 09:09:16;;;;;;;2.63;0.93;;;11.90;99.90;;;;;;6282480;22;20813;-86
2022/02/17 09:11:44;;;;;;;6.50;1.77;;;11.90;99.90;;;;;;6280311;22;20396;-86
2022/02/17 09:14:10;;;;;;;4.60;1.33;;;12.10;99.90;;;;;;6280163;22;20373;-86
2022/02/17 09:16:39;;;;;;;6.03;1.80;;;12.10;99.90;;;;;;6281191;22;20854;-85
2022/02/17 09:19:05;;;;;;;2.90;1.23;;;12.00;99.90;;;;;;6285248;22;20471;-85
2022/02/17 09:21:31;;;;;;;5.77;1.50;;;11.80;99.90;;;;;;6283712;22;20399;-86
2022/02/17 09:24:00;;;;;;;5.83;2.20;;;11.70;99.90;;;;;;6282684;22;20439;-86
2022/02/17 09:26:35;;;;;;;4.40;1.90;;;11.90;99.90;;;;;;6284372;22;20615;-86
2022/02/17 09:29:01;;;;;;;6.10;1.77;;;11.90;99.40;;;;;;6285763;22;20588;-86
2022/02/17 09:31:32;;;;;;;3.10;1.10;;;11.90;98.50;;;;;;6284681;22;20376;-86
2022/02/17 09:34:00;;;;;;;8.00;1.17;;;11.80;98.20;;;;;;6288830;22;20415;-86
2022/02/17 09:36:34;;;;;;;5.67;1.53;;;11.90;98.10;;;;;;6283097;22;21029;-87
2022/02/17 09:42:37;;;;;;;7.97;2.20;;;12.00;97.70;;;;;;6273457;22;20466;-86
2022/02/17 09:49:05;;;;;;;;;;;;;;;;;;;;;
2022/02/17 09:52:42;;;;;;;;;;;;;;;;;;;;;
2022/02/17 10:47:18;;;;;;;8.57;1.93;;;12.60;95.10;;;;;;6193512;23;20399;-87
2022/02/17 11:08:09;;;;;;;;;;;;;;;;;;;;;
2022/02/17 11:14:17;;;;;;;13.43;2.60;;;12.30;94.60;;;;;;6249388;22;20591;-87
2022/02/17 11:16:48;;;;;;;4.93;2.03;;;12.00;94.10;;;;;;6281527;22;20388;-86
2022/02/17 11:19:20;;;;;;;8.50;2.40;;;12.00;94.80;;;;;;6278071;22;20392;-86
2022/02/17 11:21:54;;;;;;;1.87;0.90;;;12.00;93.80;;;;;;6276012;22;20581;-87
2022/02/17 11:24:44;;;;;;;3.50;1.87;;;12.10;93.20;;;;;;6279337;22;20897;-87
2022/02/17 11:27:12;;;;;;;4.17;1.80;;;12.40;92.00;;;;;;6261038;22;20388;-87
2022/02/17 11:29:40;;;;;;;9.83;2.23;;;12.40;90.30;;;;;;6279244;22;20403;-87
2022/02/17 11:32:37;;;;;;;6.33;1.73;;;12.80;90.80;;;;;;6285313;22;20933;-86
2022/02/17 11:36:19;;;;;;;;;;;;;;;;;;;;;
2022/02/17 11:39:27;;;;;;;;;;;;;;;;;;;;;
2022/02/17 11:42:44;;;;;;;;;;;;;;;;;;;;;
2022/02/17 11:45:58;;;;;;;;;;;;;;;;;;;;;
2022/02/17 11:51:56;;;;;;;3.00;1.30;;;12.80;85.70;;;;;;6283476;22;20398;-87
2022/02/17 11:54:22;;;;;;;3.63;1.80;;;13.10;85.00;;;;;;6284318;22;20439;-86
2022/02/17 11:56:54;;;;;;;5.37;1.90;;;13.00;83.60;;;;;;6283005;22;20388;-87
2022/02/17 11:59:29;;;;;;;11.40;2.17;;;13.20;85.60;;;;;;6283632;22;20749;-86
2022/02/17 12:02:12;;;;;;;6.90;1.80;;;13.00;85.70;;;;;;6284173;22;20376;-87
2022/02/17 12:04:43;;;;;;;7.60;2.40;;;13.10;84.50;;;;;;6269090;22;20435;-87
2022/02/17 12:07:44;;;;;;;8.57;2.10;;;13.30;85.20;;;;;;6292635;22;20745;-87
2022/02/17 12:10:39;;;;;;;7.40;2.03;;;13.10;87.40;;;;;;6286073;22;20923;-87
2022/02/17 12:16:14;;;;;;;6.60;1.87;;;13.00;86.80;;;;;;6296241;22;20373;-87
2022/02/17 12:19:01;;;;;;;7.67;2.60;;;13.10;88.90;;;;;;6288448;22;20391;-87
2022/02/17 12:22:04;;;;;;;7.43;1.80;;;13.50;90.10;;;;;;6291181;22;20411;-86
2022/02/17 12:24:42;;;;;;;9.60;2.50;;;13.40;87.30;;;;;;6291426;22;20436;-87
2022/02/17 12:27:50;;;;;;;6.57;2.30;;;13.30;88.30;;;;;;6290455;22;20407;-88
2022/02/17 12:30:31;;;;;;;4.37;1.60;;;13.50;88.40;;;;;;6284373;22;20384;-87
2022/02/17 12:40:29;;;;;;;8.90;2.50;;;13.00;91.10;;;;;;6186974;22;20703;-87
2022/02/17 12:46:07;;;;;;;7.90;1.97;;;13.30;90.40;;;;;;6286235;22;20407;-87
2022/02/17 12:48:49;;;;;;;5.20;1.80;;;13.50;88.00;;;;;;6284938;22;20746;-87
2022/02/17 12:51:37;;;;;;;7.97;1.93;;;13.20;87.60;;;;;;6283917;22;20376;-87
2022/02/17 12:57:21;;;;;;;9.10;2.27;;;13.00;89.40;;;;;;6239275;22;20499;-87
2022/02/17 13:00:05;;;;;;;8.73;3.20;;;13.10;88.10;;;;;;6282672;22;20502;-87
2022/02/17 13:03:15;;;;;;;8.47;2.30;;;13.30;87.50;;;;;;6284119;22;20415;-87
2022/02/17 13:06:17;;;;;;;11.00;2.67;;;13.30;86.20;;;;;;6275067;22;20404;-87
2022/02/17 13:09:03;;;;;;;5.93;2.73;;;13.30;86.00;;;;;;6281354;22;20384;-87
2022/02/17 13:11:34;;;;;;;4.00;1.47;;;13.40;85.90;;;;;;6286415;22;20372;-87
2022/02/17 13:14:11;;;;;;;7.83;2.40;;;13.40;85.80;;;;;;6283442;22;20395;-87
2022/02/17 13:16:52;;;;;;;6.97;2.27;;;13.40;84.70;;;;;;6288452;22;20375;-87
2022/02/17 13:19:42;;;;;;;7.83;1.90;;;13.10;85.70;;;;;;6288871;22;20727;-87
2022/02/17 13:22:13;;;;;;;8.97;2.23;;;13.70;86.70;;;;;;6287291;22;20471;-86
2022/02/17 13:24:57;;;;;;;8.80;2.93;;;13.70;85.20;;;;;;6289941;22;20435;-88
2022/02/17 13:27:39;;;;;;;13.80;2.63;;;13.70;83.70;;;;;;6298165;22;20383;-87
2022/02/17 13:32:59;;;;;;;9.87;3.47;;;13.60;85.60;;;;;;6288929;22;20757;-87
2022/02/17 13:35:27;;;;;;;6.13;2.23;;;13.80;85.50;;;;;;6287665;22;20392;-88
2022/02/17 13:38:09;;;;;;;8.93;2.60;;;13.50;83.10;;;;;;6288168;22;20392;-87
2022/02/17 13:41:04;;;;;;;9.20;3.13;;;13.10;84.80;;;;;;6288689;22;20388;-87
2022/02/17 13:43:48;;;;;;;8.70;3.53;;;13.00;85.50;;;;;;6289942;22;20424;-87
2022/02/17 13:46:46;;;;;;;10.70;3.50;;;13.40;85.20;;;;;;6287890;22;20419;-87
2022/02/17 14:01:32;;;;;;;4.20;2.50;;;13.80;82.80;;;;;;6283156;22;20501;-87
2022/02/17 14:04:06;;;;;;;8.93;3.70;;;13.50;79.30;;;;;;6262131;22;20442;-86
2022/02/17 14:06:41;;;;;;;7.40;2.80;;;14.00;81.00;;;;;;6262459;22;20514;-86
2022/02/17 14:09:22;;;;;;;;;;;;;;;;;;;;;
2022/02/17 14:12:20;;;;;;;12.47;2.13;;;14.20;77.80;;;;;;6293481;22;20357;-86
2022/02/17 14:14:48;;;;;;;4.67;2.20;;;13.80;77.90;;;;;;6253500;22;20385;-87
2022/02/17 14:17:57;;;;;;;6.93;2.10;;;13.80;77.60;;;;;;6266611;22;20415;-87
2022/02/17 14:20:40;;;;;;;5.63;3.03;;;13.30;79.90;;;;;;6282844;22;20394;-88
2022/02/17 14:23:11;;;;;;;9.47;3.17;;;12.90;80.60;;;;;;6261943;22;20429;-85
2022/02/17 14:25:48;;;;;;;5.03;1.93;;;12.90;81.90;;;;;;6262830;22;20505;-84
2022/02/17 14:28:19;;;;;;;8.83;3.03;;;13.00;82.90;;;;;;6262837;22;20531;-84
2022/02/17 14:30:55;;;;;;;10.30;3.60;;;12.80;84.20;;;;;;6261812;22;20392;-85
2022/02/17 14:33:45;;;;;;;5.70;3.23;;;12.90;84.80;;;;;;6259779;22;20709;-85
2022/02/17 14:36:41;;;;;;;5.80;2.23;;;12.70;84.90;;;;;;6257939;22;20706;-85
2022/02/17 14:39:14;;;;;;;8.53;3.13;;;12.50;85.00;;;;;;6260289;22;20422;-85
2022/02/17 14:42:03;;;;;;;7.17;2.37;;;12.50;85.30;;;;;;6259645;22;20596;-85
2022/02/17 14:44:44;;;;;;;6.77;2.23;;;12.50;85.60;;;;;;6283883;22;20538;-85
2022/02/17 14:47:12;;;;;;;8.13;2.50;;;12.50;86.70;;;;;;6256720;22;20429;-84
2022/02/17 14:49:41;;;;;;;7.70;2.00;;;12.60;85.20;;;;;;6258522;22;20399;-85
2022/02/17 14:52:11;;;;;;;6.40;2.30;;;12.70;83.50;;;;;;6257985;22;20412;-86
2022/02/17 14:54:47;;;;;;;4.37;2.00;;;12.80;82.90;;;;;;6259670;22;20731;-85
2022/02/17 14:57:16;;;;;;;8.37;2.30;;;12.90;81.50;;;;;;6260887;22;20793;-85
2022/02/17 14:59:44;;;;;;;7.20;2.00;;;13.00;80.60;;;;;;6259386;22;20495;-85
2022/02/17 15:02:10;;;;;;;4.13;1.60;;;12.90;79.40;;;;;;6259124;22;20400;-84
2022/02/17 15:04:36;;;;;;;10.33;2.00;;;12.90;79.90;;;;;;6264177;22;20440;-84
2022/02/17 15:07:05;;;;;;;5.33;2.57;;;12.20;80.60;;;;;;6255991;22;20647;-85
2022/02/17 15:09:31;;;;;;;4.80;1.60;;;12.00;81.90;;;;;;6259288;22;20403;-86
2022/02/17 15:11:57;;;;;;;10.07;2.37;;;11.90;82.90;;;;;;6258517;22;20411;-85
2022/02/17 15:14:22;;;;;;;7.63;1.83;;;12.00;83.60;;;;;;6257991;22;20705;-87
2022/02/17 15:16:48;;;;;;;5.67;2.47;;;12.30;82.40;;;;;;6257101;22;20885;-87
2022/02/17 15:19:16;;;;;;;5.60;2.10;;;12.50;83.10;;;;;;6255660;22;20172;-88
2022/02/17 15:21:45;;;;;;;5.23;1.50;;;12.40;82.10;;;;;;6258607;22;20161;-90
2022/02/17 15:24:19;;;;;;;7.20;1.57;;;12.20;82.60;;;;;;6257819;22;20816;-89
2022/02/17 15:27:30;;;;;;;8.10;3.33;;;11.90;83.70;;;;;;6254411;22;20391;-89